createdAt,value
2019-03-13T00:04:52.024Z,5.26
2019-03-13T00:07:20.418Z,5.15
2019-03-13T00:09:48.804Z,5.06
2019-03-13T00:12:17.533Z,5.01
2019-03-13T00:14:45.912Z,5.02
2019-03-13T00:17:14.309Z,5.15
2019-03-13T00:20:01.943Z,5.13
2019-03-13T00:22:30.342Z,5.14
2019-03-13T00:28:11.125Z,5.01
2019-03-13T00:33:26.958Z,4.92
2019-03-13T00:38:42.793Z,4.98
2019-03-13T00:41:11.185Z,4.88
2019-03-13T00:43:58.830Z,4.92
2019-03-13T00:46:27.216Z,4.94
2019-03-13T00:49:14.864Z,4.93
2019-03-13T00:54:30.693Z,4.92
2019-03-13T00:57:38.998Z,4.90
2019-03-13T01:00:47.312Z,4.86
2019-03-13T01:03:34.848Z,4.88
2019-03-13T01:06:22.361Z,4.81
2019-03-13T01:08:50.757Z,4.92
2019-03-13T01:11:38.389Z,4.86
2019-03-13T01:14:06.782Z,4.77
2019-03-13T01:16:54.419Z,4.90
2019-03-13T01:19:22.816Z,4.72
2019-03-13T01:24:40.272Z,4.69
2019-03-13T01:27:27.911Z,4.75
2019-03-13T01:30:15.429Z,4.70
2019-03-13T01:36:11.271Z,4.54
2019-03-13T01:41:13.351Z,4.61
2019-03-13T01:43:41.749Z,4.53
2019-03-13T01:46:29.259Z,4.58
2019-03-13T01:49:16.906Z,4.61
2019-03-13T01:51:45.294Z,4.63
2019-03-13T01:54:13.688Z,4.72
2019-03-13T01:59:50.149Z,4.85
2019-03-13T02:02:37.789Z,5.04
2019-03-13T02:05:46.102Z,5.09
2019-03-13T02:08:33.616Z,5.11
2019-03-13T02:11:21.257Z,5.15
2019-03-13T02:14:08.771Z,5.16
2019-03-13T02:19:24.596Z,5.05
2019-03-13T02:21:52.994Z,4.94
2019-03-13T02:25:01.304Z,4.92
2019-03-13T02:27:29.692Z,5.01
2019-03-13T02:30:17.221Z,5.06
2019-03-13T02:32:45.599Z,4.97
2019-03-13T02:35:14.002Z,5.13
2019-03-13T02:40:29.825Z,5.01
2019-03-13T02:45:47.295Z,5.12
2019-03-13T02:48:15.683Z,5.06
2019-03-13T02:50:44.084Z,5.21
2019-03-13T02:53:12.790Z,5.27
2019-03-13T02:55:41.187Z,5.25
2019-03-13T02:58:09.579Z,5.23
2019-03-13T03:06:11.467Z,5.42
2019-03-13T03:09:19.792Z,5.28
2019-03-13T03:11:48.203Z,5.23
2019-03-13T03:14:56.509Z,5.33
2019-03-13T03:17:24.864Z,5.46
2019-03-13T03:19:53.266Z,5.46
2019-03-13T03:22:21.654Z,5.34
2019-03-13T03:25:09.173Z,5.38
2019-03-13T03:27:56.810Z,5.50
2019-03-13T03:31:05.150Z,5.47
2019-03-13T03:33:52.906Z,5.46
2019-03-13T03:36:21.309Z,5.51
2019-03-13T03:39:08.817Z,5.45
2019-03-13T03:41:56.332Z,5.47
2019-03-13T03:44:43.982Z,5.59
2019-03-13T03:47:12.365Z,5.46
2019-03-13T03:52:28.198Z,5.40
2019-03-13T03:55:15.734Z,5.35
2019-03-13T04:01:11.329Z,5.41
2019-03-13T04:03:58.950Z,5.49
2019-03-13T04:07:07.272Z,5.45
2019-03-13T04:09:35.662Z,5.54
2019-03-13T04:15:17.917Z,5.47
2019-03-13T04:17:46.308Z,5.50
2019-03-13T04:20:54.638Z,5.38
2019-03-13T04:23:23.017Z,5.42
2019-03-13T04:26:12.825Z,5.37
2019-03-13T04:28:40.639Z,5.41
2019-03-13T04:31:09.035Z,5.33
2019-03-13T04:33:37.434Z,5.43
2019-03-13T04:36:25.073Z,5.43
2019-03-13T04:39:12.986Z,5.49
2019-03-13T04:41:41.404Z,5.45
2019-03-13T04:44:09.807Z,5.46
2019-03-13T04:46:38.201Z,5.52
2019-03-13T04:49:06.837Z,5.60
2019-03-13T04:51:35.235Z,5.75
2019-03-13T04:54:43.533Z,5.74
2019-03-13T04:57:11.931Z,5.79
2019-03-13T04:59:40.319Z,5.61
2019-03-13T05:02:27.965Z,5.57
2019-03-13T05:04:56.359Z,5.74
2019-03-13T05:07:44.012Z,5.71
2019-03-13T05:10:31.516Z,5.75
2019-03-13T05:13:19.037Z,5.75
2019-03-13T05:15:47.439Z,5.71
2019-03-13T05:21:03.269Z,5.79
2019-03-13T05:23:50.927Z,5.69
2019-03-13T05:26:19.338Z,5.68
2019-03-13T05:28:47.721Z,5.76
2019-03-13T05:31:16.124Z,5.78
2019-03-13T05:33:44.548Z,5.87
2019-03-13T05:36:16.309Z,5.89
2019-03-13T05:38:43.092Z,5.99
2019-03-13T05:44:04.430Z,5.97
2019-03-13T05:46:32.862Z,5.81
2019-03-13T05:49:01.311Z,5.81
2019-03-13T05:51:29.744Z,5.85
2019-03-13T05:53:58.154Z,5.83
2019-03-13T05:56:26.569Z,5.82
2019-03-13T05:58:54.966Z,5.84
2019-03-13T06:01:23.398Z,5.90
2019-03-13T06:03:51.818Z,5.93
2019-03-13T06:06:20.249Z,5.95
2019-03-13T06:08:48.660Z,5.95
2019-03-13T06:11:17.089Z,5.96
2019-03-13T06:13:47.352Z,5.98
2019-03-13T06:16:15.742Z,5.96
2019-03-13T06:24:24.282Z,6.01
2019-03-13T06:27:11.967Z,6.05
2019-03-13T06:29:59.647Z,6.03
2019-03-13T06:32:28.085Z,6.07
2019-03-13T06:40:37.147Z,6.10
2019-03-13T06:43:05.544Z,6.13
2019-03-13T06:45:53.183Z,6.18
2019-03-13T06:48:21.589Z,6.18
2019-03-13T06:50:50.236Z,6.26
2019-03-13T06:53:37.886Z,6.27
2019-03-13T06:56:25.395Z,6.25
2019-03-13T07:01:51.559Z,6.37
2019-03-13T07:04:39.073Z,6.39
2019-03-13T07:12:56.993Z,6.32
2019-03-13T07:15:44.489Z,6.38
2019-03-13T07:18:32.012Z,6.40
2019-03-13T07:21:19.513Z,6.39
2019-03-13T07:24:07.030Z,6.49
2019-03-13T07:26:54.534Z,6.52
2019-03-13T07:29:42.053Z,6.56
2019-03-13T07:32:29.567Z,6.57
2019-03-13T07:35:17.080Z,6.56
2019-03-13T07:38:23.861Z,6.58
2019-03-13T07:41:30.643Z,6.59
2019-03-13T07:44:18.150Z,6.53
2019-03-13T07:47:05.659Z,6.53
2019-03-13T07:55:47.518Z,6.82
2019-03-13T07:58:35.046Z,6.80
2019-03-13T08:01:41.813Z,6.85
2019-03-13T08:07:08.312Z,6.85
2019-03-13T08:09:55.857Z,6.76
2019-03-13T08:12:43.350Z,6.73
2019-03-13T08:15:51.668Z,6.72
2019-03-13T08:18:39.173Z,6.87
2019-03-13T08:21:45.934Z,6.86
2019-03-13T08:24:33.450Z,6.80
2019-03-13T08:27:20.960Z,6.96
2019-03-13T08:30:08.478Z,7.06
2019-03-13T08:33:15.254Z,7.03
2019-03-13T08:36:03.016Z,7.08
2019-03-13T08:38:50.540Z,7.15
2019-03-13T08:41:38.060Z,7.15
2019-03-13T08:44:25.577Z,7.12
2019-03-13T08:47:13.329Z,7.08
2019-03-13T08:50:20.105Z,7.10
2019-03-13T08:56:02.259Z,7.06
2019-03-13T08:58:49.780Z,6.96
2019-03-13T09:01:37.289Z,7.05
2019-03-13T09:04:24.811Z,7.00
2019-03-13T09:13:18.909Z,7.03
2019-03-13T09:16:06.422Z,7.00
2019-03-13T09:18:53.933Z,7.07
2019-03-13T09:24:30.530Z,7.11
2019-03-13T09:27:18.040Z,7.05
2019-03-13T09:33:00.062Z,7.00
2019-03-13T09:38:42.177Z,7.08
2019-03-13T09:44:18.776Z,7.02
2019-03-13T09:47:06.283Z,7.02
2019-03-13T09:49:53.806Z,7.03
2019-03-13T09:52:41.318Z,7.04
2019-03-13T09:55:49.632Z,7.23
2019-03-13T09:58:37.149Z,7.31
2019-03-13T10:03:59.898Z,7.17
2019-03-13T10:06:47.396Z,7.09
2019-03-13T10:09:34.920Z,7.18
2019-03-13T10:12:41.666Z,7.11
2019-03-13T10:15:49.981Z,7.13
2019-03-13T10:18:56.748Z,7.14
2019-03-13T10:21:44.261Z,7.12
2019-03-13T10:27:10.766Z,7.11
2019-03-13T10:29:58.288Z,7.09
2019-03-13T10:35:34.882Z,7.13
2019-03-13T10:38:22.625Z,7.28
2019-03-13T10:43:45.615Z,7.13
2019-03-13T10:49:11.772Z,7.12
2019-03-13T10:51:59.290Z,7.29
2019-03-13T11:00:11.429Z,7.67
2019-03-13T11:02:58.951Z,7.54
2019-03-13T11:06:05.774Z,7.65
2019-03-13T11:08:53.385Z,7.52
2019-03-13T11:11:40.922Z,7.44
2019-03-13T11:14:28.448Z,7.47
2019-03-13T11:17:15.992Z,7.23
2019-03-13T11:20:22.825Z,7.29
2019-03-13T11:26:18.693Z,7.44
2019-03-13T11:31:55.352Z,7.62
2019-03-13T11:35:02.123Z,7.72
2019-03-13T11:37:49.634Z,7.84
2019-03-13T11:40:37.149Z,7.71
2019-03-13T11:51:43.640Z,8.14
2019-03-13T11:54:31.493Z,8.01
2019-03-13T11:57:19.071Z,7.75
2019-03-13T12:00:06.651Z,7.67
2019-03-13T12:02:54.251Z,7.68
2019-03-13T12:05:41.830Z,7.43
2019-03-13T12:08:29.374Z,7.41
2019-03-13T12:11:16.937Z,7.35
2019-03-13T12:19:48.715Z,7.29
2019-03-13T12:22:55.522Z,7.33
2019-03-13T12:28:32.137Z,7.40
2019-03-13T12:34:14.279Z,7.29
2019-03-13T12:37:21.236Z,7.34
2019-03-13T12:40:08.774Z,7.27
2019-03-13T12:43:15.558Z,7.26
2019-03-13T12:51:46.533Z,7.16
2019-03-13T12:57:23.207Z,7.22
2019-03-13T13:00:10.795Z,7.24
2019-03-13T13:02:58.311Z,7.24
2019-03-13T13:11:14.684Z,7.35
2019-03-13T13:14:21.524Z,7.37
2019-03-13T13:17:09.119Z,7.52
2019-03-13T13:19:37.554Z,7.45
2019-03-13T13:22:05.961Z,7.33
2019-03-13T13:24:53.855Z,7.32
2019-03-13T13:27:41.667Z,7.33
2019-03-13T13:30:50.047Z,7.28
2019-03-13T13:33:18.466Z,7.27
2019-03-13T13:35:46.935Z,7.13
2019-03-13T13:38:15.380Z,7.16
2019-03-13T13:41:03.066Z,6.99
2019-03-13T13:43:31.547Z,6.89
2019-03-13T13:46:39.926Z,6.89
2019-03-13T13:49:08.318Z,6.85
2019-03-13T13:51:36.762Z,6.89
2019-03-13T13:54:24.647Z,6.93
2019-03-13T13:56:53.097Z,7.03
2019-03-13T13:59:40.778Z,6.99
2019-03-13T14:04:43.175Z,7.02
2019-03-13T14:07:30.842Z,7.09
2019-03-13T14:09:59.256Z,7.09
2019-03-13T14:12:47.012Z,6.91
2019-03-13T14:15:55.379Z,6.84
2019-03-13T14:18:23.784Z,6.75
2019-03-13T14:21:11.442Z,6.62
2019-03-13T14:23:39.863Z,6.76
2019-03-13T14:26:08.276Z,6.63
2019-03-13T14:29:16.590Z,6.65
2019-03-13T14:31:44.977Z,6.59
2019-03-13T14:36:47.280Z,6.62
2019-03-13T14:39:34.803Z,6.72
2019-03-13T14:42:03.190Z,6.88
2019-03-13T14:47:05.272Z,6.61
2019-03-13T14:49:41.018Z,6.59
2019-03-13T14:54:56.874Z,6.57
2019-03-13T14:57:25.303Z,6.56
2019-03-13T14:59:53.737Z,6.56
2019-03-13T15:02:22.140Z,6.53
2019-03-13T15:05:10.038Z,6.66
2019-03-13T15:07:57.562Z,6.62
2019-03-13T15:10:25.955Z,6.36
2019-03-13T15:13:13.472Z,6.22
2019-03-13T15:15:41.867Z,6.25
2019-03-13T15:18:10.269Z,6.16
2019-03-13T15:20:38.692Z,6.25
2019-03-13T15:23:26.351Z,6.18
2019-03-13T15:26:13.902Z,6.20
2019-03-13T15:28:42.301Z,6.20
2019-03-13T15:36:52.286Z,5.95
2019-03-13T15:39:20.724Z,6.01
2019-03-13T15:41:49.114Z,5.99
2019-03-13T15:44:17.517Z,6.06
2019-03-13T15:46:45.909Z,6.04
2019-03-13T15:49:14.304Z,6.04
2019-03-13T15:51:42.807Z,6.10
2019-03-13T15:54:11.200Z,6.07
2019-03-13T15:56:39.603Z,6.01
2019-03-13T15:59:07.995Z,6.04
2019-03-13T16:01:36.394Z,6.12
2019-03-13T16:04:05.173Z,6.30
2019-03-13T16:06:33.565Z,6.28
2019-03-13T16:09:01.972Z,6.35
2019-03-13T16:11:30.357Z,6.39
2019-03-13T16:13:58.755Z,6.41
2019-03-13T16:16:27.264Z,6.42
2019-03-13T16:18:55.596Z,6.26
2019-03-13T16:21:23.988Z,6.24
2019-03-13T16:23:52.574Z,6.31
2019-03-13T16:26:20.967Z,6.22
2019-03-13T16:28:49.372Z,6.10
2019-03-13T16:31:17.755Z,6.08
2019-03-13T16:33:46.163Z,6.00
2019-03-13T16:36:14.550Z,5.93
2019-03-13T16:38:42.948Z,5.88
2019-03-13T16:41:11.333Z,6.03
2019-03-13T16:43:39.728Z,6.10
2019-03-13T16:46:08.126Z,6.04
2019-03-13T16:48:36.517Z,6.01
2019-03-13T16:51:05.023Z,6.03
2019-03-13T16:53:33.470Z,5.99
2019-03-13T16:56:01.898Z,6.11
2019-03-13T16:58:30.283Z,6.23
2019-03-13T17:00:58.680Z,6.24
2019-03-13T17:03:27.069Z,6.18
2019-03-13T17:05:55.465Z,6.25
2019-03-13T17:08:23.856Z,6.32
2019-03-13T17:10:52.354Z,6.31
2019-03-13T17:13:20.741Z,6.30
2019-03-13T17:15:49.139Z,6.39
2019-03-13T17:18:17.527Z,6.34
2019-03-13T17:20:46.069Z,6.23
2019-03-13T17:23:14.459Z,6.14
2019-03-13T17:25:42.856Z,6.17
2019-03-13T17:28:11.240Z,6.18
2019-03-13T17:30:39.713Z,6.08
2019-03-13T17:33:08.100Z,6.10
2019-03-13T17:35:36.505Z,6.21
2019-03-13T17:38:04.895Z,6.23
2019-03-13T17:40:34.200Z,6.20
2019-03-13T17:43:02.963Z,6.24
2019-03-13T17:45:31.358Z,6.28
2019-03-13T17:47:59.817Z,6.28
2019-03-13T17:50:28.385Z,6.33
2019-03-13T17:52:57.114Z,6.25
2019-03-13T17:55:26.655Z,6.29
2019-03-13T17:57:55.046Z,6.34
2019-03-13T18:00:27.597Z,6.22
2019-03-13T18:02:56.003Z,6.15
2019-03-13T18:05:24.546Z,6.22
2019-03-13T18:07:53.012Z,6.09
2019-03-13T18:10:21.712Z,6.09
2019-03-13T18:12:50.057Z,6.06
2019-03-13T18:15:18.861Z,6.11
2019-03-13T18:17:47.258Z,6.03
2019-03-13T18:20:25.130Z,5.98
2019-03-13T18:22:53.516Z,5.86
2019-03-13T18:25:21.918Z,5.87
2019-03-13T18:27:50.318Z,5.91
2019-03-13T18:30:23.426Z,5.95
2019-03-13T18:32:51.889Z,5.93
2019-03-13T18:35:20.761Z,5.99
2019-03-13T18:37:49.326Z,5.96
2019-03-13T18:40:19.999Z,6.00
2019-03-13T18:42:48.458Z,6.08
2019-03-13T18:45:19.467Z,6.05
2019-03-13T18:47:47.855Z,6.03
2019-03-13T18:50:17.191Z,6.04
2019-03-13T18:52:45.769Z,6.04
2019-03-13T18:55:16.582Z,6.02
2019-03-13T18:57:44.981Z,5.98
2019-03-13T19:00:22.353Z,5.94
2019-03-13T19:02:50.772Z,6.05
2019-03-13T19:05:19.249Z,6.06
2019-03-13T19:07:47.673Z,6.03
2019-03-13T19:10:19.176Z,6.08
2019-03-13T19:12:47.560Z,6.04
2019-03-13T19:15:20.891Z,5.91
2019-03-13T19:17:49.282Z,5.94
2019-03-13T19:20:28.273Z,5.91
2019-03-13T19:22:56.659Z,5.87
2019-03-13T19:25:25.126Z,5.93
2019-03-13T19:27:53.519Z,6.03
2019-03-13T19:30:23.458Z,6.11
2019-03-13T19:32:51.955Z,6.03
2019-03-13T19:35:20.350Z,6.06
2019-03-13T19:37:48.761Z,6.07
2019-03-13T19:40:20.192Z,6.05
2019-03-13T19:42:48.673Z,6.03
2019-03-13T19:45:28.627Z,6.06
2019-03-13T19:47:57.014Z,6.10
2019-03-13T19:50:27.992Z,6.08
2019-03-13T19:52:55.527Z,6.02
2019-03-13T19:55:23.917Z,6.01
2019-03-13T19:57:52.321Z,6.13
2019-03-13T20:00:23.993Z,6.14
2019-03-13T20:03:00.014Z,6.13
2019-03-13T20:05:22.690Z,6.05
2019-03-13T20:07:51.239Z,6.04
2019-03-13T20:10:22.225Z,6.16
2019-03-13T20:12:50.639Z,6.17
2019-03-13T20:15:21.510Z,6.19
2019-03-13T20:17:49.920Z,6.23
2019-03-13T20:20:20.246Z,6.36
2019-03-13T20:22:50.463Z,6.31
2019-03-13T20:25:18.930Z,6.16
2019-03-13T20:27:47.331Z,6.11
2019-03-13T20:30:20.694Z,6.23
2019-03-13T20:32:49.093Z,6.19
2019-03-13T20:35:17.487Z,6.20
2019-03-13T20:37:45.998Z,6.24
2019-03-13T20:40:22.368Z,6.40
2019-03-13T20:42:50.834Z,6.38
2019-03-13T20:45:27.970Z,6.37
2019-03-13T20:47:56.362Z,6.32
2019-03-13T20:50:36.097Z,6.24
2019-03-13T20:52:54.947Z,6.29
2019-03-13T20:55:23.985Z,6.17
2019-03-13T20:57:52.389Z,6.26
2019-03-13T21:00:22.699Z,6.36
2019-03-13T21:02:51.939Z,6.35
2019-03-13T21:05:20.408Z,6.27
2019-03-13T21:07:48.817Z,6.30
2019-03-13T21:10:17.279Z,6.35
2019-03-13T21:12:45.680Z,6.31
2019-03-13T21:15:22.873Z,6.36
2019-03-13T21:17:51.271Z,6.51
2019-03-13T21:20:20.592Z,6.55
2019-03-13T21:22:48.999Z,6.45
2019-03-13T21:25:22.707Z,6.44
2019-03-13T21:27:51.115Z,6.22
2019-03-13T21:30:24.804Z,6.06
2019-03-13T21:32:53.167Z,6.09
2019-03-13T21:35:22.003Z,6.03
2019-03-13T21:37:50.457Z,5.91
2019-03-13T21:41:16.577Z,5.89
2019-03-13T21:43:44.988Z,5.95
2019-03-13T21:46:13.409Z,6.04
2019-03-13T21:49:01.035Z,6.14
2019-03-13T21:51:29.446Z,6.16
2019-03-13T21:53:57.857Z,6.23
2019-03-13T21:59:13.776Z,6.29
2019-03-13T22:01:42.166Z,6.24
2019-03-13T22:04:23.253Z,6.14
2019-03-13T22:06:40.724Z,6.13
2019-03-13T22:09:28.472Z,6.19
2019-03-13T22:11:56.876Z,6.20
2019-03-13T22:14:25.274Z,6.25
2019-03-13T22:16:53.677Z,6.28
2019-03-13T22:19:22.076Z,6.23
2019-03-13T22:21:50.473Z,6.21
2019-03-13T22:24:38.211Z,6.33
2019-03-13T22:29:54.060Z,6.26
2019-03-13T22:32:41.721Z,6.19
2019-03-13T22:35:10.113Z,6.09
2019-03-13T22:40:52.312Z,6.15
2019-03-13T22:43:39.983Z,6.15
2019-03-13T22:46:08.358Z,6.25
2019-03-13T22:48:36.754Z,6.25
2019-03-13T22:51:05.152Z,6.19
2019-03-13T22:53:33.582Z,6.23
2019-03-13T22:56:01.977Z,6.34
2019-03-13T23:01:43.975Z,6.12
2019-03-13T23:04:12.393Z,6.14
2019-03-13T23:06:40.785Z,6.07
2019-03-13T23:09:11.794Z,6.04
2019-03-13T23:11:40.632Z,6.15
2019-03-13T23:14:09.027Z,6.04
2019-03-13T23:16:37.422Z,6.02
2019-03-13T23:19:05.818Z,6.04
2019-03-13T23:21:34.214Z,6.13
2019-03-13T23:24:02.614Z,6.13
2019-03-13T23:26:31.003Z,6.01
2019-03-13T23:28:59.408Z,6.09
2019-03-13T23:31:27.808Z,6.06
2019-03-13T23:33:56.211Z,6.03
2019-03-13T23:36:24.608Z,6.02
2019-03-13T23:38:53.132Z,6.09
2019-03-13T23:41:21.485Z,6.13
2019-03-13T23:43:49.879Z,6.04
2019-03-13T23:46:18.281Z,6.10
2019-03-13T23:48:46.684Z,6.16
2019-03-13T23:51:15.141Z,6.22
2019-03-13T23:53:43.530Z,6.13
2019-03-13T23:56:11.998Z,6.26
2019-03-13T23:58:40.393Z,6.15
